Map

Track Data

SID SEASON NUMBER BASIN SUBBASIN NAME ISO_TIME NATURE LAT LON WMO_WIND WMO_PRES WMO_AGENCY TRACK_TYPE DIST2LAND LANDFALL IFLAG USA_AGENCY USA_ATCF_ID USA_LAT USA_LON USA_RECORD USA_STATUS USA_WIND USA_PRES USA_SSHS USA_R34_NE USA_R34_SE USA_R34_SW USA_R34_NW USA_R50_NE USA_R50_SE USA_R50_SW USA_R50_NW USA_R64_NE USA_R64_SE USA_R64_SW USA_R64_NW USA_POCI USA_ROCI USA_RMW USA_EYE TOKYO_LAT TOKYO_LON TOKYO_GRADE TOKYO_WIND TOKYO_PRES TOKYO_R50_DIR TOKYO_R50_LONG TOKYO_R50_SHORT TOKYO_R30_DIR TOKYO_R30_LONG TOKYO_R30_SHORT TOKYO_LAND CMA_LAT CMA_LON CMA_CAT CMA_WIND CMA_PRES HKO_LAT HKO_LON HKO_CAT HKO_WIND HKO_PRES NEWDELHI_LAT NEWDELHI_LON NEWDELHI_GRADE NEWDELHI_WIND NEWDELHI_PRES NEWDELHI_CI NEWDELHI_DP NEWDELHI_POCI REUNION_LAT REUNION_LON REUNION_TYPE REUNION_WIND REUNION_PRES REUNION_TNUM REUNION_CI REUNION_RMW REUNION_R34_NE REUNION_R34_SE REUNION_R34_SW REUNION_R34_NW REUNION_R50_NE REUNION_R50_SE REUNION_R50_SW REUNION_R50_NW REUNION_R64_NE REUNION_R64_SE REUNION_R64_SW REUNION_R64_NW BOM_LAT BOM_LON BOM_TYPE BOM_WIND BOM_PRES BOM_TNUM BOM_CI BOM_RMW BOM_R34_NE BOM_R34_SE BOM_R34_SW BOM_R34_NW BOM_R50_NE BOM_R50_SE BOM_R50_SW BOM_R50_NW BOM_R64_NE BOM_R64_SE BOM_R64_SW BOM_R64_NW BOM_ROCI BOM_POCI BOM_EYE BOM_POS_METHOD BOM_PRES_METHOD NADI_LAT NADI_LON NADI_CAT NADI_WIND NADI_PRES WELLINGTON_LAT WELLINGTON_LON WELLINGTON_WIND WELLINGTON_PRES DS824_LAT DS824_LON DS824_STAGE DS824_WIND DS824_PRES TD9636_LAT TD9636_LON TD9636_STAGE TD9636_WIND TD9636_PRES TD9635_LAT TD9635_LON TD9635_WIND TD9635_PRES TD9635_ROCI NEUMANN_LAT NEUMANN_LON NEUMANN_CLASS NEUMANN_WIND NEUMANN_PRES MLC_LAT MLC_LON MLC_CLASS MLC_WIND MLC_PRES USA_GUST BOM_GUST BOM_GUST_PER REUNION_GUST REUNION_GUST_PER USA_SEAHGT USA_SEARAD_NE USA_SEARAD_SE USA_SEARAD_SW USA_SEARAD_NW STORM_SPEED STORM_DIR
1945134N19136 1945 24 WP MM BETTY 1945-05-13 12:00:00 TS 19.0000 136.000 main 1357 1357 O________OOO__ jtwc_wp WP021945 19.0000 136.000 20 -1 19.0000 136.000 TC 20 19.0000 136.000 1 20 19.0000 136.000 20 1000 180 11 43
1945134N19136 1945 24 WP MM BETTY 1945-05-13 15:00:00 TS 19.4069 136.402 main 1416 1392 P________PPP__ WP021945 19.4278 136.424 22 -1 19.4278 136.424 TC 22 19.3441 136.335 1 22 19.4278 136.424 22 999 150 11 43
1945134N19136 1945 24 WP MM BETTY 1945-05-13 18:00:00 TS 19.7726 136.769 main 1392 1375 O________OPO__ jtwc_wp WP021945 19.8000 136.800 25 -1 19.8000 136.800 TC 25 19.6903 136.676 1 25 19.8000 136.800 25 999 120 9 44
1945134N19136 1945 24 WP MM BETTY 1945-05-13 21:00:00 TS 20.0796 137.083 main 1375 1360 P________PPP__ WP021945 20.0923 137.101 27 -1 20.0923 137.101 TC 27 20.0414 137.030 1 27 20.0923 137.101 27 998 120 9 43
1945134N19136 1945 24 WP MM BETTY 1945-05-14 00:00:00 TS 20.4000 137.400 main 1360 1336 O________OOO__ jtwc_wp WP021945 20.4000 137.400 30 -1 20.4000 137.400 TC 30 20.4000 137.400 1 30 20.4000 137.400 30 998 120 10 42
1945134N19136 1945 24 WP MM BETTY 1945-05-14 03:00:00 TS 20.8242 137.786 main 1341 1319 P________PPP__ WP021945 20.8425 137.785 32 -1 20.8425 137.785 TC 32 20.7693 137.790 1 32 20.8425 137.785 32 998 120 11 41
1945134N19136 1945 24 WP MM BETTY 1945-05-14 06:00:00 TS 21.2637 138.198 main 1314 1301 O________OPO__ jtwc_wp WP021945 21.3000 138.200 35 0 21.3000 138.200 TC 35 21.1550 138.193 1 35 21.3000 138.200 35 998 120 11 44
1945134N19136 1945 24 WP MM BETTY 1945-05-14 09:00:00 TS 21.6226 138.600 main 1306 1291 P________PPP__ WP021945 21.6424 138.601 37 0 21.6424 138.601 TC 37 21.5631 138.600 1 37 21.6424 138.601 37 997 120 11 45
1945134N19136 1945 24 WP MM BETTY 1945-05-14 12:00:00 TS 22.0000 139.000 main 1291 1272 O________OOO__ jtwc_wp WP021945 22.0000 139.000 40 0 22.0000 139.000 TC 40 22.0000 139.000 2 40 22.0000 139.000 40 997 120 11 41
1945134N19136 1945 24 WP MM BETTY 1945-05-14 15:00:00 TS 22.4655 139.392 main 1266 1232 P________PPP__ WP021945 22.4775 139.408 45 0 22.4775 139.408 TC 45 22.4296 139.345 2 43 22.4775 139.408 45 996 150 12 36
1945134N19136 1945 24 WP MM BETTY 1945-05-14 18:00:00 TS 22.9734 139.772 main 1225 1189 O________OPO__ jtwc_wp WP021945 23.0000 139.800 50 0 23.0000 139.800 TC 50 22.8935 139.687 2 47 23.0000 139.800 50 995 180 12 34
1945134N19136 1945 24 WP MM BETTY 1945-05-14 21:00:00 TS 23.4435 140.095 main 1192 1144 P________PPP__ WP021945 23.4544 140.107 52 0 23.4544 140.107 TC 52 23.4106 140.061 2 51 23.4544 140.107 52 994 180 12 33
1945134N19136 1945 24 WP MM BETTY 1945-05-15 00:00:00 TS 24.0000 140.500 main 1144 1098 O________OOO__ jtwc_wp WP021945 24.0000 140.500 55 0 24.0000 140.500 TC 55 24.0000 140.500 2 55 24.0000 140.500 55 994 180 16 36
1945134N19136 1945 24 WP MM BETTY 1945-05-15 03:00:00 TS 24.7567 141.136 main 1088 1054 P________PPP__ WP021945 24.7706 141.169 52 0 24.7706 141.169 TC 52 24.7148 141.039 2 51 24.7706 141.169 52 994 150 20 38
1945134N19136 1945 24 WP MM BETTY 1945-05-15 06:00:00 TS 25.5731 141.838 main 1044 987 O________OPO__ jtwc_wp WP021945 25.6000 141.900 50 0 25.6000 141.900 TC 50 25.4926 141.650 2 47 25.6000 141.900 50 995 120 20 36
1945134N19136 1945 24 WP MM BETTY 1945-05-15 09:00:00 TS 26.3266 142.416 main 987 929 P________PPP__ WP021945 26.3442 142.451 45 0 26.3442 142.451 TC 45 26.2740 142.311 2 43 26.3442 142.451 45 995 90 18 36
1945134N19136 1945 24 WP MM BETTY 1945-05-15 12:00:00 TS 27.0000 143.000 main 929 897 O________OOO__ jtwc_wp WP021945 27.0000 143.000 40 0 27.0000 143.000 TC 40 27.0000 143.000 2 40 27.0000 143.000 40 996 60 17 43
1945134N19136 1945 24 WP MM BETTY 1945-05-15 15:00:00 TS 27.5411 143.680 main 900 875 P________PPP__ WP021945 27.5224 143.678 37 0 27.5224 143.678 TC 37 27.5972 143.685 2 37 27.5224 143.678 37 997 60 16 50
1945134N19136 1945 24 WP MM BETTY 1945-05-15 18:00:00 TS 28.0329 144.397 main 879 855 O________OPO__ jtwc_wp WP021945 28.0000 144.400 35 0 28.0000 144.400 TC 35 28.1318 144.388 2 35 28.0000 144.400 35 998 60 16 51
1945134N19136 1945 24 WP MM BETTY 1945-05-15 21:00:00 TS 28.5742 145.100 main 856 846 P________PPP__ WP021945 28.5571 145.100 32 -1 28.5571 145.100 TC 32 28.6253 145.097 2 32 28.5571 145.100 32 998 60 16 49
1945134N19136 1945 24 WP MM BETTY 1945-05-16 00:00:00 TS 29.1000 145.800 main 848 841 O________OOO__ jtwc_wp WP021945 29.1000 145.800 30 -1 29.1000 145.800 TC 30 29.1000 145.800 1 30 29.1000 145.800 30 998 60 16 51
1945134N19136 1945 24 WP MM BETTY 1945-05-16 03:00:00 TS 29.5614 146.503 main 846 846 P________PPP__ WP021945 29.5572 146.508 30 -1 29.5572 146.508 TC 30 29.5740 146.487 1 28 29.5572 146.508 30 998 60 15 53
1945134N19136 1945 24 WP MM BETTY 1945-05-16 06:00:00 TS 30.0124 147.190 main 860 858 O________OPO__ jtwc_wp WP021945 30.0000 147.200 30 -1 30.0000 147.200 TC 30 30.0497 147.162 1 27 30.0000 147.200 30 999 60 15 51
1945134N19136 1945 24 WP MM BETTY 1945-05-16 09:00:00 TS 30.4956 147.852 main 871 863 P________PPP__ WP021945 30.4855 147.858 27 -1 30.4855 147.858 TC 27 30.5257 147.831 1 26 30.4855 147.858 27 999 90 15 49
1945134N19136 1945 24 WP MM BETTY 1945-05-16 12:00:00 TS 31.0000 148.500 main 877 O________OOO__ jtwc_wp WP021945 31.0000 148.500 25 -1 31.0000 148.500 TC 25 31.0000 148.500 1 25 31.0000 148.500 25 1000 120 15 48

Digital Typhoon Data and Search

About IBTrACS Database

This database is a web-friendly format of International Best Track Archive for Climate Stewardship (IBTrACS), a global best track data archive curated by NOAA dating back to 1842.

Updated: 2021-10-19